Time;durP1;ratioP1;P1;durP2;ratioP2;P2;SDS_P1;SDS_P2;PMS_P1;PMS_P2;Temp;Humidity;BMP_temperature;BMP_pressure;BME280_temperature;BME280_humidity;BME280_pressure;Samples;Min_cycle;Max_cycle;Signal;HPM_P1;HPM_P2
2024/01/04 00:00:43;;;;;;;3.07;1.00;;;;;7.80;94563.00;;;;8300909;28;20320;-73
2024/01/04 00:04:47;;;;;;;0.90;0.90;;;;;7.90;94562.00;;;;8301087;28;20222;-72
2024/01/04 00:08:51;;;;;;;4.83;1.40;;;;;7.90;94568.00;;;;8300552;28;20560;-73
2024/01/04 00:12:54;;;;;;;1.23;1.10;;;;;8.00;94566.00;;;;8300180;28;20198;-74
2024/01/04 00:16:57;;;;;;;1.00;0.97;;;;;8.10;94530.00;;;;8300616;28;20531;-73
2024/01/04 00:21:02;;;;;;;1.10;0.80;;;;;8.10;94569.00;;;;8300323;28;20309;-74
2024/01/04 00:25:09;;;;;;;0.70;0.70;;;;;8.20;94562.00;;;;8300110;28;20296;-73
2024/01/04 00:29:12;;;;;;;0.83;0.83;;;;;8.20;94571.00;;;;8299444;28;20182;-73
2024/01/04 00:33:16;;;;;;;1.93;1.03;;;;;8.20;94575.00;;;;8299502;28;20198;-73
2024/01/04 00:37:19;;;;;;;1.30;1.30;;;;;8.30;94561.00;;;;8299770;28;20253;-74
2024/01/04 00:41:26;;;;;;;2.25;1.05;;;;;8.30;94574.00;;;;8298523;28;20304;-74
2024/01/04 00:45:29;;;;;;;0.90;0.87;;;;;8.20;94589.00;;;;8300039;28;20198;-73
2024/01/04 00:49:32;;;;;;;2.05;1.00;;;;;8.20;94589.00;;;;8299066;28;20198;-74
2024/01/04 00:53:35;;;;;;;0.82;0.77;;;;;8.20;94579.00;;;;8298225;28;20213;-73
2024/01/04 00:57:40;;;;;;;2.95;1.15;;;;;8.20;94611.00;;;;8299278;28;20687;-74
2024/01/04 01:01:43;;;;;;;1.10;0.90;;;;;8.20;94592.00;;;;8298846;28;20253;-74
2024/01/04 01:05:48;;;;;;;2.22;0.88;;;;;8.20;94601.00;;;;8297369;28;20190;-72
2024/01/04 01:09:52;;;;;;;2.23;0.93;;;;;8.30;94602.00;;;;8299295;28;20202;-75
2024/01/04 01:13:56;;;;;;;0.80;0.80;;;;;8.30;94604.00;;;;8298035;28;20194;-75
2024/01/04 01:18:00;;;;;;;3.72;0.90;;;;;8.40;94583.00;;;;8298693;28;20229;-76
2024/01/04 01:22:04;;;;;;;1.03;0.97;;;;;8.40;94603.00;;;;8297815;28;20265;-76
2024/01/04 01:26:08;;;;;;;0.73;0.73;;;;;8.40;94614.00;;;;8298666;28;20190;-77
2024/01/04 01:30:13;;;;;;;1.67;0.90;;;;;8.40;94605.00;;;;8298477;28;20240;-76
2024/01/04 01:34:16;;;;;;;2.40;1.10;;;;;8.20;94621.00;;;;8304954;28;20717;-76
2024/01/04 01:38:19;;;;;;;2.80;1.00;;;;;8.00;94623.00;;;;8305148;28;20650;-74
2024/01/04 01:42:22;;;;;;;3.50;1.10;;;;;7.90;94621.00;;;;8304182;28;20222;-74
2024/01/04 01:46:27;;;;;;;0.95;0.95;;;;;7.90;94625.00;;;;8304041;28;20226;-73
2024/01/04 01:50:32;;;;;;;0.73;0.73;;;;;7.80;94626.00;;;;8305602;28;20248;-73
2024/01/04 01:54:35;;;;;;;1.42;0.90;;;;;7.80;94629.00;;;;8304716;28;20547;-74
2024/01/04 01:58:39;;;;;;;0.73;0.73;;;;;7.80;94626.00;;;;8305016;28;20182;-71
2024/01/04 02:02:45;;;;;;;1.53;1.00;;;;;7.70;94630.00;;;;8305230;28;20635;-72
2024/01/04 02:06:48;;;;;;;1.80;0.88;;;;;7.70;94630.00;;;;8304768;28;20567;-71
2024/01/04 02:10:51;;;;;;;0.80;0.80;;;;;7.70;94643.00;;;;8304969;28;20297;-72
2024/01/04 02:14:56;;;;;;;3.30;1.10;;;;;7.70;94643.00;;;;8303417;28;20198;-71
2024/01/04 02:19:01;;;;;;;2.27;0.80;;;;;7.70;94650.00;;;;8303972;28;20191;-71
2024/01/04 02:23:06;;;;;;;1.63;0.90;;;;;7.70;94638.00;;;;8303860;28;20698;-71
2024/01/04 02:27:09;;;;;;;1.80;0.90;;;;;7.80;94644.00;;;;8303984;28;20191;-71
2024/01/04 02:31:12;;;;;;;1.00;0.70;;;;;7.80;94644.00;;;;8303213;28;20216;-71
2024/01/04 02:35:15;;;;;;;3.90;0.90;;;;;7.90;94638.00;;;;8303572;28;20205;-71
2024/01/04 02:39:20;;;;;;;2.83;0.85;;;;;8.00;94639.00;;;;8303644;28;20201;-72
2024/01/04 02:43:23;;;;;;;2.13;1.00;;;;;8.00;94637.00;;;;8302706;28;20222;-72
2024/01/04 02:47:26;;;;;;;1.90;0.77;;;;;8.10;94642.00;;;;8302610;28;20194;-73
2024/01/04 02:51:29;;;;;;;0.80;0.80;;;;;8.10;94648.00;;;;8303363;28;20620;-74
2024/01/04 02:55:34;;;;;;;3.03;1.00;;;;;8.00;94649.00;;;;8302670;28;20227;-73
2024/01/04 02:59:39;;;;;;;2.07;0.93;;;;;7.90;94640.00;;;;8303310;28;20198;-72
2024/01/04 03:03:45;;;;;;;2.20;0.90;;;;;7.90;94640.00;;;;8322314;22;20232;-73
2024/01/04 03:07:48;;;;;;;1.08;0.90;;;;;7.90;94640.00;;;;8285321;28;20226;-72
2024/01/04 03:11:53;;;;;;;1.30;1.03;;;;;8.00;94639.00;;;;8292472;28;20206;-74
2024/01/04 03:15:56;;;;;;;1.13;1.13;;;;;8.10;94644.00;;;;8290177;28;20240;-73
2024/01/04 03:19:59;;;;;;;1.10;0.77;;;;;8.10;94648.00;;;;8292361;28;20201;-72
2024/01/04 03:24:03;;;;;;;1.00;0.90;;;;;8.10;94644.00;;;;8294444;28;21144;-72
2024/01/04 03:28:08;;;;;;;1.63;1.00;;;;;8.00;94637.00;;;;8291517;28;20204;-73
2024/01/04 03:32:11;;;;;;;3.73;1.47;;;;;8.00;94636.00;;;;8292334;28;20202;-72
2024/01/04 03:36:14;;;;;;;2.90;1.17;;;;;8.00;94635.00;;;;8290243;28;20198;-73
2024/01/04 03:40:18;;;;;;;3.88;1.20;;;;;8.00;94647.00;;;;8291094;28;21236;-72
2024/01/04 03:44:23;;;;;;;3.33;0.90;;;;;7.90;94633.00;;;;8289935;28;20318;-72
2024/01/04 03:48:26;;;;;;;1.70;0.90;;;;;7.80;94649.00;;;;8289507;28;20201;-71
2024/01/04 03:52:29;;;;;;;3.80;1.10;;;;;7.70;94641.00;;;;8291718;28;20206;-71
2024/01/04 03:56:32;;;;;;;0.90;0.90;;;;;7.70;94663.00;;;;8289030;28;21098;-71
2024/01/04 04:00:37;;;;;;;4.23;0.93;;;;;7.70;94652.00;;;;8300386;28;20202;-71
2024/01/04 04:04:40;;;;;;;1.40;0.90;;;;;7.70;94653.00;;;;8280394;28;20299;-71
2024/01/04 04:08:43;;;;;;;1.57;1.23;;;;;7.70;94662.00;;;;8274375;28;20252;-71
2024/01/04 04:12:46;;;;;;;1.65;1.33;;;;;7.70;94681.00;;;;8279211;28;20204;-71
2024/01/04 04:16:51;;;;;;;2.47;1.00;;;;;7.70;94675.00;;;;8278333;28;20200;-71
2024/01/04 04:20:54;;;;;;;1.10;1.00;;;;;7.70;94682.00;;;;8278658;28;20844;-72
2024/01/04 04:24:57;;;;;;;1.23;0.90;;;;;7.60;94675.00;;;;8276779;28;20275;-71
2024/01/04 04:29:00;;;;;;;2.65;1.40;;;;;7.60;94665.00;;;;8278830;28;20221;-71
2024/01/04 04:33:05;;;;;;;1.40;0.97;;;;;7.60;94665.00;;;;8277651;28;20209;-71
2024/01/04 04:37:09;;;;;;;1.50;1.10;;;;;7.60;94678.00;;;;8277069;28;20217;-71
2024/01/04 04:41:12;;;;;;;1.13;0.80;;;;;7.60;94675.00;;;;8280283;28;20255;-71
2024/01/04 04:45:15;;;;;;;0.93;0.90;;;;;7.50;94681.00;;;;8275677;28;20333;-70
2024/01/04 04:49:19;;;;;;;2.20;1.33;;;;;7.50;94679.00;;;;8277066;28;20316;-70
2024/01/04 04:53:23;;;;;;;0.87;0.87;;;;;7.50;94677.00;;;;8278048;28;20229;-71
2024/01/04 04:57:26;;;;;;;1.60;0.70;;;;;7.40;94673.00;;;;8273156;28;20202;-71
2024/01/04 05:01:29;;;;;;;1.30;1.00;;;;;7.40;94677.00;;;;8272769;28;20230;-72
2024/01/04 05:05:34;;;;;;;0.73;0.70;;;;;7.40;94677.00;;;;8277843;28;20703;-72
2024/01/04 05:09:37;;;;;;;2.83;2.07;;;;;7.40;94694.00;;;;8268739;28;20236;-72
2024/01/04 05:13:40;;;;;;;0.83;0.83;;;;;7.40;94698.00;;;;8277959;28;20212;-72
2024/01/04 05:17:43;;;;;;;1.70;0.80;;;;;7.40;94711.00;;;;8274324;28;20569;-72
2024/01/04 05:21:48;;;;;;;0.97;0.80;;;;;7.30;94710.00;;;;8273588;28;20383;-72
2024/01/04 05:25:51;;;;;;;1.00;0.87;;;;;7.30;94717.00;;;;8277509;28;20293;-72
2024/01/04 05:29:55;;;;;;;1.30;1.13;;;;;7.30;94720.00;;;;8278024;28;20198;-72
2024/01/04 05:33:58;;;;;;;0.83;0.80;;;;;7.30;94736.00;;;;8274611;28;20289;-72
2024/01/04 05:38:03;;;;;;;0.80;0.80;;;;;7.20;94740.00;;;;8271778;28;20229;-72
2024/01/04 05:42:06;;;;;;;0.60;0.60;;;;;7.20;94749.00;;;;8276908;28;20321;-72
2024/01/04 05:46:09;;;;;;;1.10;0.73;;;;;7.20;94741.00;;;;8275240;28;20210;-72
2024/01/04 05:50:13;;;;;;;1.60;0.70;;;;;7.20;94741.00;;;;8275921;28;20265;-71
2024/01/04 05:54:17;;;;;;;0.60;0.60;;;;;7.10;94764.00;;;;8275578;28;20236;-72
2024/01/04 05:58:21;;;;;;;0.70;0.70;;;;;7.20;94766.00;;;;8277500;28;20822;-71
2024/01/04 06:02:26;;;;;;;0.67;0.67;;;;;7.10;94772.00;;;;8271829;28;20228;-72
2024/01/04 06:06:29;;;;;;;0.80;0.80;;;;;7.10;94780.00;;;;8277135;28;20205;-73
2024/01/04 06:10:34;;;;;;;2.10;0.70;;;;;7.10;94782.00;;;;8266952;28;20271;-72
2024/01/04 06:14:38;;;;;;;0.60;0.60;;;;;7.10;94790.00;;;;8264084;28;20199;-73
2024/01/04 06:18:41;;;;;;;0.93;0.80;;;;;7.10;94800.00;;;;8269410;28;21339;-72
2024/01/04 06:22:44;;;;;;;0.70;0.70;;;;;7.10;94806.00;;;;8256691;28;20253;-72
2024/01/04 06:26:49;;;;;;;0.63;0.63;;;;;7.10;94819.00;;;;8265726;28;20198;-72
2024/01/04 06:30:52;;;;;;;2.27;0.83;;;;;7.00;94826.00;;;;8272775;28;20244;-72
2024/01/04 06:34:55;;;;;;;0.70;0.70;;;;;7.00;94822.00;;;;8264875;28;20194;-73
2024/01/04 06:38:59;;;;;;;0.80;0.80;;;;;7.00;94826.00;;;;8268955;28;20206;-73
2024/01/04 06:43:08;;;;;;;2.30;0.77;;;;;7.00;94841.00;;;;8271179;28;20312;-73
2024/01/04 06:47:11;;;;;;;0.70;0.70;;;;;7.10;94854.00;;;;8268566;28;20210;-72
2024/01/04 06:51:14;;;;;;;0.80;0.80;;;;;7.10;94871.00;;;;8269146;28;20202;-71
2024/01/04 06:55:18;;;;;;;2.00;0.70;;;;;7.10;94845.00;;;;8271827;28;20532;-71
2024/01/04 06:59:23;;;;;;;1.30;0.80;;;;;7.10;94878.00;;;;8264697;28;20294;-71
2024/01/04 07:03:26;;;;;;;0.67;0.67;;;;;7.10;94881.00;;;;8268992;28;20221;-71
2024/01/04 07:07:30;;;;;;;1.37;0.80;;;;;7.10;94886.00;;;;8263961;28;20202;-71
2024/01/04 07:11:33;;;;;;;0.83;0.83;;;;;7.10;94885.00;;;;8261002;28;20214;-71
2024/01/04 07:15:39;;;;;;;1.43;0.90;;;;;7.10;94895.00;;;;8267145;28;20292;-71
2024/01/04 07:19:45;;;;;;;2.10;0.80;;;;;7.10;94899.00;;;;8262129;28;20293;-71
2024/01/04 07:23:48;;;;;;;1.83;0.90;;;;;7.20;94892.00;;;;8263038;28;20245;-71
2024/01/04 07:27:52;;;;;;;1.70;0.80;;;;;7.20;94902.00;;;;8273088;28;20260;-71
2024/01/04 07:31:56;;;;;;;0.90;0.90;;;;;7.20;94907.00;;;;8276525;28;20705;-71
2024/01/04 07:36:02;;;;;;;1.00;1.00;;;;;7.20;94915.00;;;;8334780;28;20216;-71
2024/01/04 07:40:07;;;;;;;0.80;0.80;;;;;7.20;94920.00;;;;8334962;28;20603;-71
2024/01/04 07:44:11;;;;;;;1.80;0.70;;;;;7.20;94905.00;;;;8334635;28;20209;-71
2024/01/04 07:48:16;;;;;;;3.33;0.90;;;;;7.30;94921.00;;;;8333868;28;20639;-70
2024/01/04 07:52:19;;;;;;;0.87;0.87;;;;;7.30;94906.00;;;;8333319;28;20200;-70
2024/01/04 07:56:22;;;;;;;1.80;0.90;;;;;7.30;94941.00;;;;8333111;28;20284;-70
2024/01/04 08:00:26;;;;;;;1.10;1.00;;;;;7.40;94937.00;;;;8334377;28;20198;-72
2024/01/04 08:04:32;;;;;;;3.53;0.90;;;;;7.40;94946.00;;;;8333763;28;20229;-71
2024/01/04 08:08:35;;;;;;;4.15;1.00;;;;;7.40;94952.00;;;;8332729;28;20182;-70
2024/01/04 08:12:41;;;;;;;1.00;0.80;;;;;7.40;94954.00;;;;8334277;28;20189;-72
2024/01/04 08:16:45;;;;;;;0.80;0.80;;;;;7.40;94959.00;;;;8332897;28;20259;-71
2024/01/04 08:20:49;;;;;;;1.03;0.70;;;;;7.40;94961.00;;;;8333806;28;20585;-71
2024/01/04 08:24:53;;;;;;;0.60;0.60;;;;;7.40;94962.00;;;;8333207;28;20249;-71
2024/01/04 08:28:56;;;;;;;2.70;1.00;;;;;7.40;94964.00;;;;8332703;28;20225;-72
2024/01/04 08:32:59;;;;;;;0.67;0.67;;;;;7.40;94981.00;;;;8332823;28;20287;-72
2024/01/04 08:37:04;;;;;;;0.83;0.83;;;;;7.40;94979.00;;;;8333024;28;20538;-71
2024/01/04 08:41:07;;;;;;;0.80;0.80;;;;;7.50;94982.00;;;;8331299;28;20236;-71
2024/01/04 08:45:11;;;;;;;2.67;0.97;;;;;7.50;94990.00;;;;8331182;28;20221;-71
2024/01/04 08:49:14;;;;;;;0.80;0.77;;;;;7.50;94987.00;;;;8331732;28;20221;-71
2024/01/04 08:53:20;;;;;;;0.93;0.90;;;;;7.60;95003.00;;;;8332109;28;20678;-70
2024/01/04 08:57:23;;;;;;;0.70;0.70;;;;;7.50;95001.00;;;;8330729;28;20181;-71
2024/01/04 09:01:27;;;;;;;0.70;0.70;;;;;7.40;94993.00;;;;8330184;28;20193;-71
2024/01/04 09:05:31;;;;;;;1.23;0.90;;;;;7.40;95008.00;;;;8331219;28;20271;-72
2024/01/04 09:09:36;;;;;;;0.80;0.80;;;;;7.40;95009.00;;;;8331190;28;20219;-72
2024/01/04 09:13:39;;;;;;;2.27;0.80;;;;;7.40;95013.00;;;;8332273;28;20524;-73
2024/01/04 09:17:43;;;;;;;1.70;0.80;;;;;7.40;95022.00;;;;8328444;28;20488;-74
2024/01/04 09:21:49;;;;;;;0.80;0.80;;;;;7.30;95043.00;;;;8329937;28;20189;-73
2024/01/04 09:25:54;;;;;;;3.13;0.83;;;;;7.30;95047.00;;;;8329729;28;20251;-75
2024/01/04 09:29:57;;;;;;;1.07;0.80;;;;;7.30;95051.00;;;;8329343;28;20190;-74
2024/01/04 09:34:05;;;;;;;1.53;0.80;;;;;7.30;95051.00;;;;8325335;28;20225;-81
2024/01/04 09:38:08;;;;;;;3.93;1.00;;;;;7.30;95066.00;;;;8327344;28;20182;-74
2024/01/04 09:42:15;;;;;;;1.20;1.10;;;;;7.30;95056.00;;;;8331156;28;20233;-76
2024/01/04 09:46:21;;;;;;;1.03;1.03;;;;;7.40;95069.00;;;;8330729;28;20286;-76
2024/01/04 09:50:24;;;;;;;0.90;0.90;;;;;7.50;95060.00;;;;8330692;28;20192;-75
2024/01/04 09:54:31;;;;;;;2.47;1.20;;;;;7.60;95062.00;;;;8334042;28;20204;-72
2024/01/04 09:58:35;;;;;;;1.97;0.80;;;;;7.60;95070.00;;;;8338137;28;20226;-75
2024/01/04 10:02:42;;;;;;;0.70;0.70;;;;;7.60;95067.00;;;;8337102;28;20660;-72
2024/01/04 10:06:47;;;;;;;1.10;1.00;;;;;7.60;95084.00;;;;8337929;28;20214;-74
2024/01/04 10:10:53;;;;;;;3.00;0.90;;;;;7.70;95089.00;;;;8337380;28;20193;-72
2024/01/04 10:14:58;;;;;;;1.07;1.00;;;;;7.80;95077.00;;;;8337245;28;20523;-73
2024/01/04 10:19:03;;;;;;;4.50;0.93;;;;;8.00;95089.00;;;;8337824;28;20193;-72
2024/01/04 10:23:08;;;;;;;1.33;1.23;;;;;7.90;95094.00;;;;8335644;28;20185;-72
2024/01/04 10:27:16;;;;;;;0.85;0.85;;;;;7.80;95083.00;;;;8336836;28;20181;-72
2024/01/04 10:31:20;;;;;;;1.35;0.90;;;;;7.70;95091.00;;;;8335821;28;20238;-72
2024/01/04 10:35:29;;;;;;;0.80;0.80;;;;;7.70;95097.00;;;;8336653;28;20197;-72
2024/01/04 10:39:33;;;;;;;5.73;1.10;;;;;7.70;95099.00;;;;8336757;28;20217;-72
2024/01/04 10:43:39;;;;;;;2.73;0.90;;;;;7.70;95101.00;;;;8335778;28;20261;-73
2024/01/04 10:47:49;;;;;;;1.43;0.87;;;;;7.70;95124.00;;;;8335111;28;20190;-73
2024/01/04 10:51:54;;;;;;;3.47;0.97;;;;;7.60;95117.00;;;;8335923;28;20688;-72
2024/01/04 10:55:57;;;;;;;3.77;1.10;;;;;7.70;95129.00;;;;8336258;28;20611;-73
2024/01/04 11:00:03;;;;;;;12.27;1.60;;;;;7.90;95122.00;;;;8335003;28;20621;-73
2024/01/04 11:04:08;;;;;;;1.63;1.00;;;;;8.00;95125.00;;;;8335092;28;20232;-73
2024/01/04 11:08:14;;;;;;;3.90;1.20;;;;;8.00;95131.00;;;;8334780;28;20269;-74
2024/01/04 11:12:19;;;;;;;8.23;1.40;;;;;7.90;95151.00;;;;8335264;28;20220;-73
2024/01/04 11:16:40;;;;;;;7.43;1.20;;;;;7.70;95132.00;;;;8334360;28;20205;-73
2024/01/04 11:21:07;;;;;;;3.77;1.00;;;;;7.60;95140.00;;;;8335982;28;20610;-73
2024/01/04 11:25:20;;;;;;;4.37;1.70;;;;;7.70;95137.00;;;;8334698;28;20213;-73
2024/01/04 11:29:24;;;;;;;3.57;1.10;;;;;7.70;95138.00;;;;8334318;28;20224;-75
2024/01/04 11:33:28;;;;;;;5.10;1.20;;;;;7.90;95141.00;;;;8334421;28;20240;-75
2024/01/04 11:37:33;;;;;;;8.57;1.20;;;;;7.90;95132.00;;;;8332895;28;20255;-75
2024/01/04 11:41:37;;;;;;;2.43;1.30;;;;;8.00;95132.00;;;;8333412;28;20220;-75
2024/01/04 11:45:42;;;;;;;5.22;1.42;;;;;8.20;95141.00;;;;8331497;28;20221;-74
2024/01/04 11:49:49;;;;;;;10.37;1.10;;;;;8.40;95143.00;;;;8330936;28;20182;-75
2024/01/04 11:54:08;;;;;;;7.22;1.40;;;;;8.50;95138.00;;;;8329968;28;20200;-73
2024/01/04 11:58:13;;;;;;;1.33;1.20;;;;;8.50;95155.00;;;;8328113;28;20196;-73
2024/01/04 12:02:19;;;;;;;2.50;1.60;;;;;8.50;95160.00;;;;8330470;28;20559;-74
2024/01/04 12:06:24;;;;;;;6.30;1.60;;;;;8.50;95156.00;;;;8329122;28;20252;-73
2024/01/04 12:10:28;;;;;;;1.45;1.15;;;;;8.50;95155.00;;;;8329058;28;20189;-73
2024/01/04 12:14:35;;;;;;;2.53;0.97;;;;;8.50;95148.00;;;;8332882;28;20237;-77
2024/01/04 12:18:38;;;;;;;2.73;1.40;;;;;8.50;95153.00;;;;8326988;28;20182;-74
2024/01/04 12:22:43;;;;;;;4.67;1.37;;;;;8.50;95146.00;;;;8329427;28;20289;-74
2024/01/04 12:26:49;;;;;;;4.05;1.50;;;;;8.50;95164.00;;;;8327664;28;20313;-75
2024/01/04 12:30:53;;;;;;;6.88;1.50;;;;;8.40;95157.00;;;;8328599;28;20523;-76
2024/01/04 12:34:56;;;;;;;4.97;1.47;;;;;8.40;95174.00;;;;8328975;28;20626;-75
2024/01/04 12:39:07;;;;;;;4.30;1.48;;;;;8.40;95166.00;;;;8328650;28;20638;-76
2024/01/04 12:43:13;;;;;;;15.00;1.60;;;;;8.40;95175.00;;;;8328387;28;20269;-76
2024/01/04 12:47:22;;;;;;;7.97;1.60;;;;;8.50;95179.00;;;;8327512;28;20213;-76
2024/01/04 12:51:28;;;;;;;9.30;1.53;;;;;8.50;95170.00;;;;8327929;28;20185;-76
2024/01/04 12:55:34;;;;;;;3.50;1.40;;;;;8.50;95177.00;;;;8326386;28;20641;-75
2024/01/04 12:59:38;;;;;;;7.07;1.48;;;;;8.50;95182.00;;;;8327322;28;20586;-76
2024/01/04 13:03:42;;;;;;;6.05;1.73;;;;;8.50;95190.00;;;;8327378;28;20274;-76
2024/01/04 13:07:45;;;;;;;5.73;1.40;;;;;8.40;95204.00;;;;8325682;28;20216;-74
2024/01/04 13:11:48;;;;;;;9.03;1.90;;;;;8.50;95205.00;;;;8327698;28;20229;-74
2024/01/04 13:15:53;;;;;;;8.87;1.93;;;;;8.50;95191.00;;;;8327221;28;20193;-75
2024/01/04 13:19:56;;;;;;;18.53;9.90;;;;;8.50;95194.00;;;;8326507;28;20280;-75
2024/01/04 13:24:00;;;;;;;23.07;10.23;;;;;8.40;95203.00;;;;8329111;28;20617;-74
2024/01/04 13:28:04;;;;;;;18.45;5.60;;;;;8.40;95196.00;;;;8329732;28;20280;-75
2024/01/04 13:32:09;;;;;;;18.73;7.70;;;;;8.50;95210.00;;;;8335912;28;20288;-76
2024/01/04 13:36:12;;;;;;;36.53;15.35;;;;;8.50;95217.00;;;;8338161;28;20375;-76
2024/01/04 13:40:16;;;;;;;32.60;16.13;;;;;8.40;95223.00;;;;8336697;28;20200;-76
2024/01/04 13:44:19;;;;;;;102.87;41.70;;;;;8.20;95228.00;;;;8334407;28;20519;-75
2024/01/04 13:48:24;;;;;;;20.80;8.87;;;;;8.00;95225.00;;;;8332773;28;20205;-77
2024/01/04 13:52:27;;;;;;;245.10;118.70;;;;;7.80;95236.00;;;;8332504;28;20276;-76
2024/01/04 13:56:31;;;;;;;42.27;17.30;;;;;7.70;95245.00;;;;8333384;28;20289;-78
2024/01/04 14:00:34;;;;;;;49.05;21.10;;;;;7.60;95255.00;;;;8332986;28;20526;-77
2024/01/04 14:04:39;;;;;;;9.17;3.97;;;;;7.70;95251.00;;;;8334612;28;20562;-79
2024/01/04 14:08:45;;;;;;;48.03;18.50;;;;;7.70;95257.00;;;;8336978;28;20201;-82
2024/01/04 14:12:51;;;;;;;714.30;312.03;;;;;7.70;95247.00;;;;8334905;28;20181;-79
2024/01/04 14:16:54;;;;;;;80.50;30.63;;;;;7.90;95256.00;;;;8337159;28;20614;-78
2024/01/04 14:20:59;;;;;;;249.90;92.50;;;;;8.00;95257.00;;;;8336085;28;20203;-78
2024/01/04 14:25:03;;;;;;;171.87;59.53;;;;;8.10;95252.00;;;;8336776;28;20217;-79
2024/01/04 14:29:07;;;;;;;36.03;13.43;;;;;8.10;95267.00;;;;8335678;28;20244;-79
2024/01/04 14:33:11;;;;;;;67.07;20.90;;;;;8.20;95266.00;;;;8335304;28;20729;-82
2024/01/04 14:37:31;;;;;;;51.33;19.03;;;;;8.10;95279.00;;;;8336256;28;20185;-82
2024/01/04 14:41:41;;;;;;;66.50;26.83;;;;;8.20;95284.00;;;;8333803;28;20611;-82
2024/01/04 14:45:45;;;;;;;23.43;9.17;;;;;8.10;95306.00;;;;8336704;28;20267;-81
2024/01/04 14:49:48;;;;;;;56.10;17.90;;;;;7.70;95315.00;;;;8334704;28;20198;-75
2024/01/04 14:53:59;;;;;;;118.70;43.40;;;;;7.40;95313.00;;;;8332865;28;20241;-74
2024/01/04 14:58:03;;;;;;;274.63;104.73;;;;;7.30;95314.00;;;;8334676;28;20186;-73
2024/01/04 15:02:07;;;;;;;17.33;8.40;;;;;7.20;95316.00;;;;8335301;28;20225;-75
2024/01/04 15:06:14;;;;;;;55.67;32.03;;;;;7.20;95326.00;;;;8336136;28;20618;-76
2024/01/04 15:10:18;;;;;;;13.47;6.97;;;;;7.10;95314.00;;;;8334918;28;20570;-76
2024/01/04 15:14:21;;;;;;;7.07;2.17;;;;;7.10;95322.00;;;;8335028;28;20233;-76
2024/01/04 15:18:26;;;;;;;8.20;4.00;;;;;7.00;95338.00;;;;8332172;28;20289;-74
2024/01/04 15:22:29;;;;;;;7.97;1.80;;;;;6.90;95318.00;;;;8332814;28;20282;-74
2024/01/04 15:26:34;;;;;;;5.70;1.93;;;;;6.80;95317.00;;;;8334147;28;20228;-76
2024/01/04 15:30:37;;;;;;;6.53;2.10;;;;;6.70;95316.00;;;;8333530;28;20231;-76
2024/01/04 15:34:41;;;;;;;8.73;1.93;;;;;6.70;95333.00;;;;8334063;28;20204;-76
2024/01/04 15:38:44;;;;;;;7.63;1.90;;;;;6.60;95338.00;;;;8334114;28;20243;-77
2024/01/04 15:42:49;;;;;;;7.07;2.03;;;;;6.60;95350.00;;;;8333556;28;20193;-78
2024/01/04 15:46:52;;;;;;;6.43;1.73;;;;;6.50;95351.00;;;;8332463;28;20260;-76
2024/01/04 15:50:58;;;;;;;10.47;1.67;;;;;6.60;95353.00;;;;8333051;28;20233;-79
2024/01/04 15:55:02;;;;;;;6.77;1.80;;;;;6.60;95357.00;;;;8333518;28;20181;-79
2024/01/04 15:59:07;;;;;;;7.00;1.83;;;;;6.60;95350.00;;;;8333470;28;20193;-79
2024/01/04 16:03:10;;;;;;;7.60;2.00;;;;;6.60;95365.00;;;;8328955;28;20256;-77
2024/01/04 16:07:14;;;;;;;3.13;1.50;;;;;6.60;95358.00;;;;8332350;28;20636;-77
2024/01/04 16:11:17;;;;;;;9.83;1.80;;;;;6.70;95362.00;;;;8332689;28;20593;-77
2024/01/04 16:15:21;;;;;;;5.57;1.50;;;;;6.60;95368.00;;;;8333037;28;20233;-78
2024/01/04 16:19:25;;;;;;;9.13;2.40;;;;;6.60;95371.00;;;;8332665;28;20273;-77
2024/01/04 16:23:28;;;;;;;10.90;5.53;;;;;6.50;95374.00;;;;8330644;28;20713;-77
2024/01/04 16:27:32;;;;;;;6.67;2.23;;;;;6.50;95367.00;;;;8331404;28;20225;-74
2024/01/04 16:31:37;;;;;;;8.07;2.40;;;;;6.50;95372.00;;;;8332200;28;20623;-79
2024/01/04 16:35:40;;;;;;;10.20;3.03;;;;;6.50;95361.00;;;;8332781;28;20223;-78
2024/01/04 16:39:44;;;;;;;18.73;6.40;;;;;6.60;95374.00;;;;8332340;28;20530;-77
2024/01/04 16:43:47;;;;;;;15.37;3.60;;;;;6.50;95379.00;;;;8332889;28;20614;-77
2024/01/04 16:47:52;;;;;;;7.53;2.33;;;;;6.40;95373.00;;;;8332386;28;20256;-78
2024/01/04 16:51:55;;;;;;;20.03;7.43;;;;;6.40;95392.00;;;;8332155;28;20232;-78
2024/01/04 16:55:58;;;;;;;13.73;4.43;;;;;6.30;95404.00;;;;8330877;28;20284;-79
2024/01/04 17:00:02;;;;;;;9.40;4.70;;;;;6.40;95402.00;;;;8331062;28;20229;-78
2024/01/04 17:04:07;;;;;;;12.20;2.93;;;;;6.40;95399.00;;;;8332522;28;20662;-79
2024/01/04 17:08:10;;;;;;;8.13;2.57;;;;;6.50;95403.00;;;;8332068;28;20213;-79
2024/01/04 17:12:14;;;;;;;12.83;3.90;;;;;6.50;95398.00;;;;8331772;28;20189;-79
2024/01/04 17:16:19;;;;;;;5.30;2.27;;;;;6.50;95400.00;;;;8332552;28;20254;-79
2024/01/04 17:20:27;;;;;;;5.77;2.87;;;;;6.60;95402.00;;;;8332136;28;20615;-79
2024/01/04 17:24:31;;;;;;;7.20;3.07;;;;;6.60;95400.00;;;;8332620;28;20607;-78
2024/01/04 17:28:34;;;;;;;5.43;2.40;;;;;6.70;95417.00;;;;8332417;28;20228;-79
2024/01/04 17:32:37;;;;;;;10.63;4.03;;;;;6.70;95414.00;;;;8331502;28;20706;-78
2024/01/04 17:36:44;;;;;;;8.10;2.30;;;;;6.70;95417.00;;;;8331901;28;20318;-77
2024/01/04 17:40:47;;;;;;;9.27;2.10;;;;;6.80;95414.00;;;;8332367;28;20585;-78
2024/01/04 17:44:50;;;;;;;6.60;2.07;;;;;6.80;95419.00;;;;8331426;28;20209;-78
2024/01/04 17:48:55;;;;;;;9.73;2.10;;;;;6.90;95427.00;;;;8331482;28;20264;-78
2024/01/04 17:53:00;;;;;;;5.33;1.90;;;;;6.90;95426.00;;;;8331807;28;20600;-78
2024/01/04 17:57:03;;;;;;;6.67;1.83;;;;;6.90;95463.00;;;;8332007;28;20593;-78
2024/01/04 18:01:08;;;;;;;4.57;1.57;;;;;6.80;95432.00;;;;8330632;28;20207;-77
2024/01/04 18:05:15;;;;;;;9.73;1.80;;;;;6.60;95432.00;;;;8331584;28;20320;-77
2024/01/04 18:09:20;;;;;;;3.60;1.53;;;;;6.50;95447.00;;;;8331175;28;20655;-77
2024/01/04 18:13:23;;;;;;;5.80;2.00;;;;;6.40;95436.00;;;;8331048;28;20197;-77
2024/01/04 18:17:26;;;;;;;10.00;1.97;;;;;6.40;95437.00;;;;8336633;28;20774;-76
2024/01/04 18:21:29;;;;;;;5.93;3.70;;;;;6.30;95440.00;;;;8337493;28;20197;-77
2024/01/04 18:25:35;;;;;;;4.80;2.13;;;;;6.20;95444.00;;;;8337251;28;20626;-77
2024/01/04 18:29:38;;;;;;;7.80;2.30;;;;;6.20;95450.00;;;;8333897;28;20209;-77
2024/01/04 18:33:41;;;;;;;3.50;2.23;;;;;6.20;95463.00;;;;8335805;28;20200;-76
2024/01/04 18:37:45;;;;;;;7.43;2.30;;;;;6.30;95462.00;;;;8336196;28;20197;-76
2024/01/04 18:41:49;;;;;;;7.33;3.03;;;;;6.30;95453.00;;;;8336254;28;20596;-76
2024/01/04 18:45:52;;;;;;;13.07;2.40;;;;;6.30;95466.00;;;;8336078;28;20634;-80
2024/01/04 18:49:56;;;;;;;6.37;2.50;;;;;6.30;95478.00;;;;8336187;28;20221;-77
2024/01/04 18:54:00;;;;;;;8.83;3.13;;;;;6.30;95486.00;;;;8336532;28;20273;-77
2024/01/04 18:58:04;;;;;;;7.63;2.50;;;;;6.30;95486.00;;;;8336537;28;20273;-77
2024/01/04 19:02:08;;;;;;;6.93;2.47;;;;;6.40;95485.00;;;;8335577;28;20229;-76
2024/01/04 19:06:11;;;;;;;10.27;3.60;;;;;6.40;95492.00;;;;8335918;28;20642;-76
2024/01/04 19:10:14;;;;;;;8.37;4.20;;;;;6.40;95494.00;;;;8335529;28;20193;-75
2024/01/04 19:14:19;;;;;;;17.43;7.47;;;;;6.50;95496.00;;;;8334442;28;20297;-77
2024/01/04 19:18:23;;;;;;;9.30;4.03;;;;;6.50;95502.00;;;;8334906;28;20224;-76
2024/01/04 19:22:27;;;;;;;7.93;2.80;;;;;6.50;95512.00;;;;8334425;28;20201;-74
2024/01/04 19:26:31;;;;;;;6.63;3.00;;;;;6.60;95506.00;;;;8334161;28;20238;-75
2024/01/04 19:30:35;;;;;;;10.07;2.60;;;;;6.50;95504.00;;;;8331757;28;20240;-76
2024/01/04 19:34:39;;;;;;;9.67;1.97;;;;;6.60;95499.00;;;;8331604;28;20190;-74
2024/01/04 19:38:44;;;;;;;5.50;2.67;;;;;6.60;95491.00;;;;8335028;28;20259;-74
2024/01/04 19:42:48;;;;;;;6.20;1.87;;;;;6.60;95493.00;;;;8333829;28;20193;-75
2024/01/04 19:46:53;;;;;;;6.47;1.70;;;;;6.60;95484.00;;;;8334109;28;20260;-74
2024/01/04 19:50:56;;;;;;;7.30;2.50;;;;;6.60;95495.00;;;;8333803;28;20240;-74
2024/01/04 19:54:59;;;;;;;3.67;2.00;;;;;6.60;95480.00;;;;8334198;28;20201;-74
2024/01/04 19:59:03;;;;;;;3.67;1.60;;;;;6.50;95478.00;;;;8333508;28;20189;-74
2024/01/04 20:03:08;;;;;;;3.87;1.40;;;;;6.40;95477.00;;;;8334618;28;20622;-75
2024/01/04 20:07:12;;;;;;;3.97;1.87;;;;;6.30;95485.00;;;;8334800;28;20271;-74
2024/01/04 20:11:15;;;;;;;8.73;2.10;;;;;6.20;95475.00;;;;8333734;28;20225;-75
2024/01/04 20:15:20;;;;;;;6.60;1.67;;;;;6.20;95470.00;;;;8333238;28;20200;-74
2024/01/04 20:19:24;;;;;;;4.50;1.40;;;;;6.20;95479.00;;;;8333515;28;20288;-75
2024/01/04 20:23:28;;;;;;;4.03;1.50;;;;;6.10;95477.00;;;;8330813;28;20197;-74
2024/01/04 20:27:31;;;;;;;5.90;1.60;;;;;6.00;95480.00;;;;8332080;28;20260;-75
2024/01/04 20:31:34;;;;;;;5.27;2.43;;;;;6.00;95481.00;;;;8331777;28;20258;-74
2024/01/04 20:35:39;;;;;;;8.10;2.27;;;;;5.90;95479.00;;;;8329526;28;20228;-74